Time;durP1;ratioP1;P1;durP2;ratioP2;P2;SDS_P1;SDS_P2;PMS_P1;PMS_P2;Temp;Humidity;BMP_temperature;BMP_pressure;BME280_temperature;BME280_humidity;BME280_pressure;Samples;Min_cycle;Max_cycle;Signal;HPM_P1;HPM_P2
2022/06/29 00:00:18;;;;;;;4.30;2.53;;;;;;;;;;5053246;28;20470;-76
2022/06/29 00:02:45;;;;;;;4.20;2.60;;;;;;;;;;5053270;28;20884;-76
2022/06/29 00:05:13;;;;;;;2.93;1.93;;;;;;;;;;5052749;28;20446;-76
2022/06/29 00:07:40;;;;;;;4.50;1.80;;;;;;;;;;5052975;28;20371;-76
2022/06/29 00:10:06;;;;;;;2.47;1.77;;;;;;;;;;5053229;28;20387;-76
2022/06/29 00:12:33;;;;;;;2.17;1.97;;;;;;;;;;5052522;28;20404;-76
2022/06/29 00:15:02;;;;;;;3.57;2.50;;;;;;;;;;5052545;28;20410;-75
2022/06/29 00:17:28;;;;;;;4.33;2.40;;;;;;;;;;5052811;28;20379;-76
2022/06/29 00:19:54;;;;;;;2.87;2.10;;;;;;;;;;5052686;28;20387;-75
2022/06/29 00:22:20;;;;;;;2.70;2.40;;;;;;;;;;5052927;28;20375;-77
2022/06/29 00:24:46;;;;;;;3.37;2.40;;;;;;;;;;5052423;28;20546;-76
2022/06/29 00:27:12;;;;;;;3.80;2.30;;;;;;;;;;5052847;28;20854;-76
2022/06/29 00:29:38;;;;;;;7.17;2.60;;;;;;;;;;5052575;28;20470;-76
2022/06/29 00:32:05;;;;;;;4.23;2.43;;;;;;;;;;5052501;28;20430;-76
2022/06/29 00:34:32;;;;;;;7.17;2.27;;;;;;;;;;5052213;28;20408;-76
2022/06/29 00:36:58;;;;;;;7.17;2.70;;;;;;;;;;5051398;28;20445;-76
2022/06/29 00:39:24;;;;;;;3.30;2.47;;;;;;;;;;5052453;28;20456;-76
2022/06/29 00:41:50;;;;;;;4.70;2.80;;;;;;;;;;5052372;28;20913;-76
2022/06/29 00:44:17;;;;;;;4.50;2.70;;;;;;;;;;5052206;28;20459;-76
2022/06/29 00:46:51;;;;;;;3.53;2.20;;;;;;;;;;5052327;28;20407;-76
2022/06/29 00:49:18;;;;;;;3.33;2.47;;;;;;;;;;5051239;28;20492;-76
2022/06/29 00:51:48;;;;;;;5.67;2.63;;;;;;;;;;5052449;28;20772;-76
2022/06/29 00:54:18;;;;;;;5.30;2.80;;;;;;;;;;5051937;28;20416;-76
2022/06/29 00:56:44;;;;;;;3.57;2.83;;;;;;;;;;5052453;28;20429;-76
2022/06/29 00:59:12;;;;;;;5.07;2.80;;;;;;;;;;5052436;28;20821;-76
2022/06/29 01:01:39;;;;;;;3.13;2.20;;;;;;;;;;5051142;28;20395;-76
2022/06/29 01:04:06;;;;;;;2.57;2.20;;;;;;;;;;5051951;28;20386;-77
2022/06/29 01:06:32;;;;;;;4.63;2.10;;;;;;;;;;5052312;28;20431;-75
2022/06/29 01:08:58;;;;;;;2.40;2.03;;;;;;;;;;5052496;28;20436;-76
2022/06/29 01:11:24;;;;;;;5.17;2.37;;;;;;;;;;5052291;28;20395;-75
2022/06/29 01:13:50;;;;;;;6.90;2.57;;;;;;;;;;5051920;28;20443;-77
2022/06/29 01:16:16;;;;;;;5.53;2.37;;;;;;;;;;5052075;28;20403;-75
2022/06/29 01:18:42;;;;;;;4.93;2.50;;;;;;;;;;5052130;28;20430;-75
2022/06/29 01:21:13;;;;;;;3.00;2.67;;;;;;;;;;5052206;28;20967;-75
2022/06/29 01:23:39;;;;;;;4.17;2.30;;;;;;;;;;5052139;28;20471;-76
2022/06/29 01:26:06;;;;;;;2.77;2.50;;;;;;;;;;5056076;28;20391;-76
2022/06/29 01:28:32;;;;;;;3.33;2.63;;;;;;;;;;5055978;28;20519;-77
2022/06/29 01:30:59;;;;;;;5.20;2.73;;;;;;;;;;5055919;28;20443;-78
2022/06/29 01:33:25;;;;;;;4.17;2.50;;;;;;;;;;5055750;28;20764;-77
2022/06/29 01:35:51;;;;;;;7.23;2.53;;;;;;;;;;5055723;28;20455;-77
2022/06/29 01:38:18;;;;;;;3.80;2.47;;;;;;;;;;5055619;28;20772;-78
2022/06/29 01:40:44;;;;;;;2.57;2.33;;;;;;;;;;5055803;28;20736;-77
2022/06/29 01:43:10;;;;;;;3.20;2.90;;;;;;;;;;5055487;28;20722;-75
2022/06/29 01:45:36;;;;;;;3.27;2.87;;;;;;;;;;5055559;28;20428;-78
2022/06/29 01:48:03;;;;;;;8.63;2.33;;;;;;;;;;5055496;28;20942;-78
2022/06/29 01:50:29;;;;;;;2.53;2.33;;;;;;;;;;5055405;28;20407;-76
2022/06/29 01:52:54;;;;;;;3.50;2.87;;;;;;;;;;5055222;28;20417;-75
2022/06/29 01:55:21;;;;;;;4.30;2.40;;;;;;;;;;5054415;28;20818;-78
2022/06/29 01:57:46;;;;;;;3.43;2.50;;;;;;;;;;5055528;28;20890;-78
2022/06/29 02:00:13;;;;;;;3.27;2.50;;;;;;;;;;5054198;28;20383;-77
2022/06/29 02:02:39;;;;;;;4.97;2.70;;;;;;;;;;5055293;28;20413;-77
2022/06/29 02:05:06;;;;;;;4.17;2.20;;;;;;;;;;5054932;28;20770;-77
2022/06/29 02:07:32;;;;;;;3.73;2.67;;;;;;;;;;5055097;28;20387;-78
2022/06/29 02:09:58;;;;;;;5.40;2.20;;;;;;;;;;5055256;28;20538;-77
2022/06/29 02:12:24;;;;;;;2.80;2.30;;;;;;;;;;5055148;28;20404;-77
2022/06/29 02:14:50;;;;;;;5.60;2.60;;;;;;;;;;5054893;28;20783;-77
2022/06/29 02:17:16;;;;;;;3.60;2.67;;;;;;;;;;5055300;28;20398;-78
2022/06/29 02:19:42;;;;;;;4.57;2.90;;;;;;;;;;5055073;28;20483;-76
2022/06/29 02:22:08;;;;;;;5.57;2.57;;;;;;;;;;5055002;28;20776;-77
2022/06/29 02:24:34;;;;;;;4.53;2.60;;;;;;;;;;5054423;28;20490;-77
2022/06/29 02:27:00;;;;;;;8.57;2.90;;;;;;;;;;5054796;28;20401;-77
2022/06/29 02:29:26;;;;;;;4.17;2.77;;;;;;;;;;5053528;28;20394;-77
2022/06/29 02:34:46;;;;;;;6.57;2.80;;;;;;;;;;5053510;28;20891;-78
2022/06/29 02:37:12;;;;;;;4.20;2.70;;;;;;;;;;5054400;28;20407;-77
2022/06/29 02:39:38;;;;;;;5.93;2.93;;;;;;;;;;5054666;28;20435;-77
2022/06/29 02:42:05;;;;;;;4.23;2.93;;;;;;;;;;5054840;28;20873;-77
2022/06/29 02:44:31;;;;;;;3.60;3.10;;;;;;;;;;5054371;28;20827;-77
2022/06/29 02:46:57;;;;;;;3.93;2.87;;;;;;;;;;5053235;28;20917;-77
2022/06/29 02:49:23;;;;;;;4.83;3.40;;;;;;;;;;5054724;28;20424;-76
2022/06/29 02:51:49;;;;;;;5.00;2.80;;;;;;;;;;5054751;28;20507;-78
2022/06/29 02:54:15;;;;;;;4.00;2.87;;;;;;;;;;5054519;28;20412;-77
2022/06/29 02:56:41;;;;;;;3.27;2.63;;;;;;;;;;5054467;28;20413;-77
2022/06/29 02:59:07;;;;;;;6.80;2.83;;;;;;;;;;5054241;28;20456;-77
2022/06/29 03:01:33;;;;;;;3.73;3.33;;;;;;;;;;5054343;28;20486;-77
2022/06/29 03:03:59;;;;;;;3.70;2.70;;;;;;;;;;5052888;28;20394;-77
2022/06/29 03:06:25;;;;;;;3.03;2.63;;;;;;;;;;5054316;28;20523;-76
2022/06/29 03:08:52;;;;;;;3.70;3.00;;;;;;;;;;5054373;28;20445;-78
2022/06/29 03:11:18;;;;;;;3.00;2.70;;;;;;;;;;5053991;28;20402;-77
2022/06/29 03:13:44;;;;;;;3.93;2.53;;;;;;;;;;5054000;28;20543;-77
2022/06/29 03:16:10;;;;;;;4.10;2.70;;;;;;;;;;5054117;28;20439;-75
2022/06/29 03:18:36;;;;;;;4.57;3.47;;;;;;;;;;5054057;28;20460;-76
2022/06/29 03:21:02;;;;;;;4.33;2.67;;;;;;;;;;5054115;28;20412;-77
2022/06/29 03:23:28;;;;;;;4.70;4.17;;;;;;;;;;5053643;28;20409;-77
2022/06/29 03:25:54;;;;;;;3.13;2.83;;;;;;;;;;5053963;28;20932;-76
2022/06/29 03:28:20;;;;;;;4.03;3.17;;;;;;;;;;5052833;28;20417;-77
2022/06/29 03:30:46;;;;;;;6.90;2.40;;;;;;;;;;5053910;28;20817;-77
2022/06/29 03:33:12;;;;;;;2.43;2.23;;;;;;;;;;5053415;28;20775;-77
2022/06/29 03:35:38;;;;;;;3.03;2.77;;;;;;;;;;5052597;28;20523;-76
2022/06/29 03:38:04;;;;;;;4.50;2.50;;;;;;;;;;5053611;28;20468;-77
2022/06/29 03:40:30;;;;;;;4.10;2.80;;;;;;;;;;5053780;28;20409;-77
2022/06/29 03:42:56;;;;;;;5.17;2.67;;;;;;;;;;5053371;28;20404;-76
2022/06/29 03:45:22;;;;;;;5.27;3.33;;;;;;;;;;5053396;28;20917;-77
2022/06/29 03:47:49;;;;;;;4.00;2.53;;;;;;;;;;5051581;28;21069;-77
2022/06/29 03:50:15;;;;;;;3.40;2.97;;;;;;;;;;5053729;28;20784;-76
2022/06/29 03:52:41;;;;;;;5.77;3.70;;;;;;;;;;5053538;28;20420;-76
2022/06/29 03:55:07;;;;;;;6.20;2.73;;;;;;;;;;5053285;28;20399;-77
2022/06/29 03:57:33;;;;;;;4.47;2.83;;;;;;;;;;5053566;28;20409;-77
2022/06/29 03:59:59;;;;;;;4.33;3.10;;;;;;;;;;5053289;28;20464;-76
2022/06/29 04:02:26;;;;;;;3.87;2.93;;;;;;;;;;5053535;28;20408;-77
2022/06/29 04:04:52;;;;;;;5.60;3.33;;;;;;;;;;5053058;28;20515;-77
2022/06/29 04:07:18;;;;;;;5.70;3.60;;;;;;;;;;5053235;28;20390;-77
2022/06/29 04:09:44;;;;;;;3.70;2.90;;;;;;;;;;5053236;28;20420;-77
2022/06/29 04:12:10;;;;;;;4.07;3.37;;;;;;;;;;5053187;28;20478;-77
2022/06/29 04:14:36;;;;;;;6.37;3.60;;;;;;;;;;5052856;28;20455;-77
2022/06/29 04:17:03;;;;;;;4.80;3.30;;;;;;;;;;5053017;28;20409;-77
2022/06/29 04:19:29;;;;;;;7.53;3.60;;;;;;;;;;5052662;28;20460;-77
2022/06/29 04:21:55;;;;;;;5.00;3.00;;;;;;;;;;5052901;28;20466;-77
2022/06/29 04:24:21;;;;;;;6.43;3.60;;;;;;;;;;5052444;28;20499;-77
2022/06/29 04:26:47;;;;;;;8.60;3.77;;;;;;;;;;5053059;28;20431;-77
2022/06/29 04:29:13;;;;;;;6.33;3.87;;;;;;;;;;5052573;28;20417;-77
2022/06/29 04:31:40;;;;;;;7.37;3.77;;;;;;;;;;5052417;28;21136;-77
2022/06/29 04:34:06;;;;;;;4.00;3.33;;;;;;;;;;5052423;28;20408;-77
2022/06/29 04:36:32;;;;;;;4.03;3.60;;;;;;;;;;5052585;28;20411;-77
2022/06/29 04:38:58;;;;;;;4.40;3.27;;;;;;;;;;5052576;28;20460;-77
2022/06/29 04:41:24;;;;;;;4.53;3.20;;;;;;;;;;5053734;28;20408;-77
2022/06/29 04:43:50;;;;;;;7.63;3.57;;;;;;;;;;5052031;28;20516;-77
2022/06/29 04:46:19;;;;;;;5.83;3.93;;;;;;;;;;5052630;28;20905;-75
2022/06/29 04:48:46;;;;;;;4.37;3.63;;;;;;;;;;5052451;28;20416;-77
2022/06/29 04:51:12;;;;;;;4.83;3.10;;;;;;;;;;5052483;28;20412;-77
2022/06/29 04:53:38;;;;;;;5.67;3.83;;;;;;;;;;5052090;28;20382;-77
2022/06/29 04:56:04;;;;;;;7.47;3.27;;;;;;;;;;5052283;28;20495;-77
2022/06/29 04:58:30;;;;;;;3.80;3.50;;;;;;;;;;5052220;28;20452;-78
2022/06/29 05:00:56;;;;;;;6.03;3.23;;;;;;;;;;5056507;28;20383;-77
2022/06/29 05:03:22;;;;;;;6.30;3.13;;;;;;;;;;5055059;28;20408;-77
2022/06/29 05:05:48;;;;;;;9.90;3.50;;;;;;;;;;5055362;28;20509;-77
2022/06/29 05:08:14;;;;;;;3.70;3.00;;;;;;;;;;5056527;28;20420;-77
2022/06/29 05:10:41;;;;;;;3.70;3.30;;;;;;;;;;5056594;28;20398;-77
2022/06/29 05:13:09;;;;;;;5.30;3.33;;;;;;;;;;5056008;28;20964;-77
2022/06/29 05:15:35;;;;;;;5.10;3.60;;;;;;;;;;5056375;28;20432;-77
2022/06/29 05:18:01;;;;;;;7.73;3.60;;;;;;;;;;5056027;28;20430;-76
2022/06/29 05:20:27;;;;;;;4.47;3.53;;;;;;;;;;5056366;28;20404;-77
2022/06/29 05:22:53;;;;;;;7.30;3.53;;;;;;;;;;5055840;28;20462;-77
2022/06/29 05:25:20;;;;;;;6.40;3.40;;;;;;;;;;5056059;28;20477;-77
2022/06/29 05:27:46;;;;;;;6.07;3.47;;;;;;;;;;5055953;28;20452;-77
2022/06/29 05:30:12;;;;;;;10.30;3.70;;;;;;;;;;5055877;28;20412;-77
2022/06/29 05:32:38;;;;;;;4.57;3.77;;;;;;;;;;5055837;28;20436;-77
2022/06/29 05:35:04;;;;;;;6.03;3.07;;;;;;;;;;5055581;28;20517;-77
2022/06/29 05:37:31;;;;;;;5.03;3.20;;;;;;;;;;5055910;28;20416;-77
2022/06/29 05:39:57;;;;;;;6.53;3.63;;;;;;;;;;5055576;28;20441;-78
2022/06/29 05:42:23;;;;;;;5.57;3.23;;;;;;;;;;5055647;28;20401;-77
2022/06/29 05:44:49;;;;;;;4.30;2.23;;;;;;;;;;5053899;28;20828;-77
2022/06/29 05:47:15;;;;;;;2.90;2.60;;;;;;;;;;5055661;28;20495;-77
2022/06/29 05:49:41;;;;;;;3.20;2.53;;;;;;;;;;5056018;28;20445;-78
2022/06/29 05:52:08;;;;;;;4.10;2.30;;;;;;;;;;5054304;28;20411;-77
2022/06/29 05:54:34;;;;;;;2.60;2.40;;;;;;;;;;5055183;28;20844;-77
2022/06/29 05:57:00;;;;;;;6.80;2.60;;;;;;;;;;5055683;28;20404;-77
2022/06/29 05:59:26;;;;;;;5.63;2.77;;;;;;;;;;5055669;28;20442;-77
2022/06/29 06:01:52;;;;;;;4.73;2.47;;;;;;;;;;5055609;28;20746;-77
2022/06/29 06:04:19;;;;;;;2.87;2.50;;;;;;;;;;5055025;28;20870;-78
2022/06/29 06:06:45;;;;;;;7.37;2.27;;;;;;;;;;5055445;28;20464;-77
2022/06/29 06:09:11;;;;;;;3.83;1.97;;;;;;;;;;5055415;28;20519;-77
2022/06/29 06:11:37;;;;;;;2.47;2.27;;;;;;;;;;5053109;28;20433;-78
2022/06/29 06:14:03;;;;;;;3.20;2.10;;;;;;;;;;5055127;28;20416;-77
2022/06/29 06:16:30;;;;;;;4.83;2.60;;;;;;;;;;5055087;28;20432;-78
2022/06/29 06:18:56;;;;;;;3.97;2.33;;;;;;;;;;5055319;28;20456;-77
2022/06/29 06:21:22;;;;;;;2.00;1.70;;;;;;;;;;5055119;28;20407;-78
2022/06/29 06:23:48;;;;;;;3.27;2.10;;;;;;;;;;5054882;28;20412;-78
2022/06/29 06:26:14;;;;;;;2.60;1.87;;;;;;;;;;5054995;28;20424;-77
2022/06/29 06:28:40;;;;;;;3.80;2.40;;;;;;;;;;5054929;28;20901;-77
2022/06/29 06:31:07;;;;;;;9.50;2.70;;;;;;;;;;5053689;28;20473;-77
2022/06/29 06:33:33;;;;;;;6.80;2.80;;;;;;;;;;5054747;28;20391;-77
2022/06/29 06:35:59;;;;;;;7.10;2.50;;;;;;;;;;5054841;28;20577;-77
2022/06/29 06:38:25;;;;;;;5.53;2.40;;;;;;;;;;5054668;28;20575;-77
2022/06/29 06:43:36;;;;;;;3.17;2.47;;;;;;;;;;5054993;28;20740;-77
2022/06/29 06:46:02;;;;;;;4.17;2.50;;;;;;;;;;5054710;28;20403;-77
2022/06/29 06:48:28;;;;;;;6.30;2.70;;;;;;;;;;5054524;28;20781;-77
2022/06/29 06:50:54;;;;;;;3.70;2.30;;;;;;;;;;5054423;28;20395;-77
2022/06/29 06:53:20;;;;;;;2.77;2.57;;;;;;;;;;5054394;28;20815;-77
2022/06/29 06:55:46;;;;;;;4.90;2.77;;;;;;;;;;5054562;28;20822;-77
2022/06/29 06:58:12;;;;;;;4.70;3.13;;;;;;;;;;5053231;28;20980;-78
2022/06/29 07:00:38;;;;;;;5.27;2.80;;;;;;;;;;5054209;28;20849;-78
2022/06/29 07:03:04;;;;;;;4.87;3.50;;;;;;;;;;5054103;28;20796;-77
2022/06/29 07:05:30;;;;;;;4.63;3.00;;;;;;;;;;5054162;28;20436;-77
2022/06/29 07:07:56;;;;;;;5.10;3.47;;;;;;;;;;5053048;28;20465;-77
2022/06/29 07:10:22;;;;;;;4.70;2.83;;;;;;;;;;5053097;28;20427;-76
2022/06/29 07:12:48;;;;;;;5.87;3.50;;;;;;;;;;5053973;28;20416;-78
2022/06/29 07:15:14;;;;;;;5.00;3.40;;;;;;;;;;5052766;28;20467;-77
2022/06/29 07:17:41;;;;;;;8.00;3.33;;;;;;;;;;5054250;28;20424;-77
2022/06/29 07:20:08;;;;;;;7.40;4.03;;;;;;;;;;5054017;28;20468;-77
2022/06/29 07:22:34;;;;;;;8.10;2.90;;;;;;;;;;5053857;28;20420;-77
2022/06/29 07:25:00;;;;;;;3.77;3.37;;;;;;;;;;5053525;28;20438;-78
2022/06/29 07:27:26;;;;;;;5.63;3.10;;;;;;;;;;5053859;28;20412;-76
2022/06/29 07:29:52;;;;;;;6.57;4.10;;;;;;;;;;5053848;28;20428;-76
2022/06/29 07:32:19;;;;;;;8.40;3.33;;;;;;;;;;5053700;28;20489;-76
2022/06/29 07:34:45;;;;;;;5.87;3.27;;;;;;;;;;5053312;28;20521;-75
2022/06/29 07:37:11;;;;;;;5.93;3.03;;;;;;;;;;5053489;28;20420;-75
2022/06/29 07:39:37;;;;;;;4.20;2.57;;;;;;;;;;5053773;28;20779;-75
2022/06/29 07:42:03;;;;;;;3.37;2.70;;;;;;;;;;5053582;28;20729;-75
2022/06/29 07:44:29;;;;;;;5.27;3.00;;;;;;;;;;5052941;28;20770;-77
2022/06/29 07:46:56;;;;;;;3.73;2.30;;;;;;;;;;5052054;28;20421;-77
2022/06/29 07:49:22;;;;;;;2.83;2.57;;;;;;;;;;5053212;28;20842;-75
2022/06/29 07:51:48;;;;;;;3.53;2.50;;;;;;;;;;5053476;28;20413;-75
2022/06/29 07:54:14;;;;;;;3.20;2.67;;;;;;;;;;5053163;28;20420;-77
2022/06/29 07:56:40;;;;;;;4.30;2.80;;;;;;;;;;5053175;28;20432;-77
2022/06/29 07:59:07;;;;;;;4.70;2.60;;;;;;;;;;5053027;28;20952;-75
2022/06/29 08:01:32;;;;;;;3.80;2.50;;;;;;;;;;5053308;28;20413;-76
2022/06/29 08:03:58;;;;;;;5.20;2.77;;;;;;;;;;5052864;28;20437;-76
2022/06/29 08:06:25;;;;;;;3.97;2.43;;;;;;;;;;5053318;28;20435;-75
2022/06/29 08:08:51;;;;;;;5.00;2.60;;;;;;;;;;5053320;28;20423;-76
2022/06/29 08:11:17;;;;;;;6.00;3.17;;;;;;;;;;5052722;28;20399;-76
2022/06/29 08:13:43;;;;;;;4.03;3.37;;;;;;;;;;5052831;28;20482;-76
2022/06/29 08:16:09;;;;;;;2.63;2.40;;;;;;;;;;5053066;28;21006;-77
2022/06/29 08:18:35;;;;;;;4.70;2.57;;;;;;;;;;5050320;28;20468;-76
2022/06/29 08:21:02;;;;;;;4.90;2.70;;;;;;;;;;5042702;28;20420;-77
2022/06/29 08:23:29;;;;;;;3.17;2.30;;;;;;;;;;5042659;28;20410;-76
2022/06/29 08:25:56;;;;;;;3.43;2.33;;;;;;;;;;5041333;28;20437;-76
2022/06/29 08:28:22;;;;;;;12.60;2.73;;;;;;;;;;5040769;28;20980;-76
2022/06/29 08:30:48;;;;;;;3.10;2.40;;;;;;;;;;5042595;28;20416;-77
2022/06/29 08:33:14;;;;;;;3.40;2.27;;;;;;;;;;5034734;28;20421;-76
2022/06/29 08:35:41;;;;;;;4.67;2.40;;;;;;;;;;5032467;28;20471;-75
2022/06/29 08:38:07;;;;;;;10.10;2.80;;;;;;;;;;5032671;28;20461;-77
2022/06/29 08:40:44;;;;;;;2.57;2.23;;;;;;;;;;5032750;28;20434;-75
2022/06/29 08:43:11;;;;;;;4.70;2.90;;;;;;;;;;5030921;28;20449;-77
2022/06/29 08:45:40;;;;;;;4.03;2.90;;;;;;;;;;5032350;28;20438;-77
2022/06/29 08:48:06;;;;;;;4.83;3.20;;;;;;;;;;5032573;28;20417;-76
2022/06/29 08:50:32;;;;;;;3.73;3.10;;;;;;;;;;5032615;28;20425;-77
2022/06/29 08:53:01;;;;;;;4.60;2.90;;;;;;;;;;5032263;28;20417;-77
2022/06/29 08:55:27;;;;;;;7.10;3.10;;;;;;;;;;5032376;28;20428;-77
2022/06/29 08:57:53;;;;;;;6.50;3.23;;;;;;;;;;5032710;28;20405;-76
2022/06/29 09:00:21;;;;;;;4.30;2.93;;;;;;;;;;5032688;28;20459;-76
2022/06/29 09:02:47;;;;;;;4.60;2.97;;;;;;;;;;5032817;28;20424;-77
2022/06/29 09:05:13;;;;;;;5.90;3.60;;;;;;;;;;5037183;28;20503;-75
2022/06/29 09:07:39;;;;;;;3.70;3.13;;;;;;;;;;5052166;28;20413;-75
2022/06/29 09:10:07;;;;;;;3.97;2.73;;;;;;;;;;5038987;28;20516;-74
2022/06/29 09:12:33;;;;;;;4.13;2.70;;;;;;;;;;5049791;28;20477;-76
2022/06/29 09:15:00;;;;;;;7.23;3.70;;;;;;;;;;5051610;28;20466;-76
2022/06/29 09:17:26;;;;;;;4.30;3.50;;;;;;;;;;5052412;28;20416;-76
2022/06/29 09:19:56;;;;;;;6.10;3.80;;;;;;;;;;5050797;28;20464;-77
2022/06/29 09:22:22;;;;;;;3.60;2.70;;;;;;;;;;5051177;28;20413;-77
2022/06/29 09:24:50;;;;;;;9.00;3.40;;;;;;;;;;5051765;28;20440;-77
2022/06/29 09:27:16;;;;;;;4.77;2.63;;;;;;;;;;5052248;28;20402;-76
2022/06/29 09:29:43;;;;;;;5.30;2.30;;;;;;;;;;5052183;28;20748;-76
2022/06/29 09:32:10;;;;;;;5.10;2.77;;;;;;;;;;5052065;28;20503;-75
2022/06/29 09:34:38;;;;;;;6.30;2.90;;;;;;;;;;5051916;28;20548;-75
2022/06/29 09:37:04;;;;;;;2.97;2.60;;;;;;;;;;5052109;28;20412;-77
2022/06/29 09:39:33;;;;;;;10.40;3.37;;;;;;;;;;5052108;28;20463;-74
2022/06/29 09:41:59;;;;;;;3.50;2.50;;;;;;;;;;5051939;28;20937;-76
2022/06/29 09:44:25;;;;;;;6.17;3.30;;;;;;;;;;5051700;28;20925;-76
2022/06/29 09:46:54;;;;;;;7.20;4.10;;;;;;;;;;5054278;28;20411;-76
2022/06/29 09:49:24;;;;;;;8.37;4.27;;;;;;;;;;5055777;28;20416;-77
2022/06/29 09:51:51;;;;;;;10.90;4.17;;;;;;;;;;5052212;28;20417;-76
2022/06/29 09:54:20;;;;;;;19.53;5.40;;;;;;;;;;5044945;28;20700;-77
2022/06/29 09:56:50;;;;;;;6.13;3.60;;;;;;;;;;5044649;28;20457;-76
2022/06/29 10:02:37;;;;;;;6.20;3.70;;;;;;;;;;5043463;28;20396;-78
2022/06/29 10:05:08;;;;;;;3.97;3.07;;;;;;;;;;5045812;28;20551;-76
2022/06/29 10:07:35;;;;;;;6.80;4.00;;;;;;;;;;5044618;28;20422;-76
2022/06/29 10:10:02;;;;;;;7.10;4.13;;;;;;;;;;5038833;28;20421;-75
2022/06/29 10:15:53;;;;;;;7.63;4.37;;;;;;;;;;5035312;28;20487;-78
2022/06/29 10:18:30;;;;;;;6.53;4.00;;;;;;;;;;5035228;28;20479;-74
2022/06/29 10:20:57;;;;;;;11.60;4.90;;;;;;;;;;5035255;28;20761;-75
2022/06/29 10:23:42;;;;;;;10.80;4.93;;;;;;;;;;5034798;28;20467;-75
2022/06/29 10:26:28;;;;;;;8.63;5.30;;;;;;;;;;5034939;28;20918;-78
2022/06/29 10:28:54;;;;;;;8.30;4.47;;;;;;;;;;5033673;28;20571;-76
2022/06/29 10:31:40;;;;;;;6.97;4.10;;;;;;;;;;5034886;28;21008;-76
2022/06/29 10:34:26;;;;;;;9.50;4.63;;;;;;;;;;5034676;28;20718;-75
2022/06/29 10:36:58;;;;;;;9.87;4.43;;;;;;;;;;5037844;28;20418;-75
2022/06/29 10:39:24;;;;;;;8.60;3.80;;;;;;;;;;5040421;28;20459;-74
2022/06/29 10:44:53;;;;;;;7.33;3.57;;;;;;;;;;5045207;28;20759;-75
2022/06/29 10:47:22;;;;;;;4.87;3.40;;;;;;;;;;5039919;28;20504;-75
2022/06/29 10:49:48;;;;;;;8.10;3.50;;;;;;;;;;5034739;28;20425;-75
2022/06/29 10:52:15;;;;;;;7.13;3.93;;;;;;;;;;5033257;28;20815;-77
2022/06/29 10:54:42;;;;;;;5.10;3.50;;;;;;;;;;5034120;28;20587;-75
2022/06/29 10:57:07;;;;;;;10.80;2.73;;;;;;;;;;5034087;28;20442;-76
2022/06/29 10:59:38;;;;;;;7.80;2.57;;;;;;;;;;5034616;28;20570;-75
2022/06/29 11:02:08;;;;;;;5.00;2.33;;;;;;;;;;5034805;28;20878;-74
2022/06/29 11:04:34;;;;;;;3.40;2.13;;;;;;;;;;5034051;28;20406;-77
2022/06/29 11:12:47;;;;;;;3.87;1.60;;;;;;;;;;5034422;28;20409;-74
2022/06/29 11:17:57;;;;;;;3.83;1.63;;;;;;;;;;5034409;28;20398;-75
2022/06/29 11:20:23;;;;;;;4.50;2.17;;;;;;;;;;5034125;28;20417;-76
2022/06/29 11:22:50;;;;;;;3.13;1.43;;;;;;;;;;5037517;28;20571;-76
2022/06/29 11:25:16;;;;;;;1.50;1.37;;;;;;;;;;5032394;28;20433;-76
2022/06/29 11:27:42;;;;;;;3.00;1.70;;;;;;;;;;5042519;28;20783;-76
2022/06/29 11:30:09;;;;;;;3.63;2.07;;;;;;;;;;5053960;28;20423;-76
2022/06/29 11:32:39;;;;;;;3.00;1.87;;;;;;;;;;5053580;28;20425;-76
2022/06/29 11:35:06;;;;;;;3.67;1.80;;;;;;;;;;5053514;28;20803;-76
2022/06/29 11:37:32;;;;;;;5.60;2.20;;;;;;;;;;5053622;28;20420;-76
2022/06/29 11:39:58;;;;;;;4.30;2.10;;;;;;;;;;5044272;28;20576;-76
2022/06/29 11:45:19;;;;;;;2.93;2.20;;;;;;;;;;5033735;28;20429;-76
2022/06/29 11:47:52;;;;;;;11.87;2.63;;;;;;;;;;5033659;28;20416;-76
2022/06/29 11:50:19;;;;;;;3.63;2.30;;;;;;;;;;5033522;28;20451;-75
2022/06/29 11:52:47;;;;;;;2.10;1.83;;;;;;;;;;5033170;28;20488;-76
2022/06/29 11:55:13;;;;;;;3.00;2.27;;;;;;;;;;5033063;28;20433;-76
2022/06/29 11:57:39;;;;;;;4.73;2.10;;;;;;;;;;5049212;28;20413;-76
2022/06/29 12:00:06;;;;;;;2.50;1.83;;;;;;;;;;5063506;28;20494;-76
2022/06/29 12:02:34;;;;;;;4.67;2.13;;;;;;;;;;5058607;28;20419;-76
2022/06/29 12:05:00;;;;;;;2.77;1.97;;;;;;;;;;5063926;28;20520;-76
2022/06/29 12:07:28;;;;;;;4.40;2.23;;;;;;;;;;5071586;28;20446;-76
2022/06/29 12:09:54;;;;;;;2.13;1.73;;;;;;;;;;5061120;28;20427;-76
2022/06/29 12:12:21;;;;;;;6.97;2.00;;;;;;;;;;5062246;28;20480;-76
2022/06/29 12:14:47;;;;;;;2.20;1.50;;;;;;;;;;5057114;28;20445;-76
2022/06/29 12:17:14;;;;;;;2.97;1.77;;;;;;;;;;5057783;28;20555;-76
2022/06/29 12:19:40;;;;;;;3.73;2.00;;;;;;;;;;5054989;28;20812;-76
2022/06/29 12:22:06;;;;;;;3.07;1.90;;;;;;;;;;5072944;28;20423;-76
2022/06/29 12:24:33;;;;;;;3.10;1.90;;;;;;;;;;5072364;28;20427;-76
2022/06/29 12:26:59;;;;;;;5.23;2.03;;;;;;;;;;5072851;28;20404;-76
2022/06/29 12:29:25;;;;;;;3.83;1.73;;;;;;;;;;5055471;28;20837;-76
2022/06/29 12:31:51;;;;;;;3.50;2.00;;;;;;;;;;5047858;28;20797;-75
2022/06/29 12:34:17;;;;;;;3.23;2.20;;;;;;;;;;5033025;28;20414;-76
2022/06/29 12:36:43;;;;;;;2.60;1.90;;;;;;;;;;5045802;28;20433;-75
2022/06/29 12:39:09;;;;;;;5.23;1.60;;;;;;;;;;5052442;28;20488;-75
2022/06/29 12:41:36;;;;;;;4.63;1.63;;;;;;;;;;5032679;28;20418;-76
2022/06/29 12:44:03;;;;;;;2.80;1.53;;;;;;;;;;5032410;28;20406;-75
2022/06/29 12:46:33;;;;;;;2.03;1.83;;;;;;;;;;5032616;28;20519;-76
2022/06/29 12:49:03;;;;;;;5.53;2.17;;;;;;;;;;5032386;28;20914;-76
2022/06/29 12:51:30;;;;;;;3.47;1.97;;;;;;;;;;5032632;28;20881;-76
2022/06/29 12:53:56;;;;;;;2.60;1.80;;;;;;;;;;5032392;28;20420;-76
2022/06/29 12:56:22;;;;;;;3.20;1.47;;;;;;;;;;5032523;28;20922;-76
2022/06/29 12:58:48;;;;;;;3.30;1.80;;;;;;;;;;5032541;28;20460;-75
2022/06/29 13:01:14;;;;;;;2.43;1.73;;;;;;;;;;5032438;28;20448;-76
2022/06/29 13:03:40;;;;;;;3.17;1.50;;;;;;;;;;5030825;28;20418;-76
2022/06/29 13:06:06;;;;;;;3.10;1.90;;;;;;;;;;5032449;28;20433;-76
2022/06/29 13:08:32;;;;;;;3.60;2.03;;;;;;;;;;5031140;28;20449;-76
2022/06/29 13:11:00;;;;;;;5.83;1.97;;;;;;;;;;5031456;28;20409;-75
2022/06/29 13:13:26;;;;;;;2.50;1.33;;;;;;;;;;5031928;28;20973;-76
2022/06/29 13:15:52;;;;;;;3.67;1.50;;;;;;;;;;5032374;28;20432;-75
2022/06/29 13:18:18;;;;;;;3.27;1.67;;;;;;;;;;5032444;28;20468;-75
2022/06/29 13:20:44;;;;;;;2.90;1.90;;;;;;;;;;5034323;28;20413;-74
2022/06/29 13:23:10;;;;;;;2.70;1.63;;;;;;;;;;5035993;28;20413;-76
2022/06/29 13:25:37;;;;;;;1.77;1.30;;;;;;;;;;5036108;28;20837;-75
2022/06/29 13:28:03;;;;;;;1.97;1.40;;;;;;;;;;5036313;28;20824;-75
2022/06/29 13:30:29;;;;;;;1.67;1.53;;;;;;;;;;5036120;28;20409;-75
2022/06/29 13:32:55;;;;;;;1.70;1.50;;;;;;;;;;5035723;28;20825;-75
2022/06/29 13:35:21;;;;;;;2.60;1.50;;;;;;;;;;5035972;28;20482;-75
2022/06/29 13:37:48;;;;;;;2.30;1.77;;;;;;;;;;5035861;28;20497;-76
2022/06/29 13:40:13;;;;;;;5.00;1.70;;;;;;;;;;5036083;28;20476;-75
2022/06/29 13:42:40;;;;;;;4.27;2.13;;;;;;;;;;5035883;28;20406;-75
2022/06/29 13:45:06;;;;;;;3.20;1.87;;;;;;;;;;5035428;28;20433;-76
2022/06/29 13:47:33;;;;;;;4.43;1.73;;;;;;;;;;5035722;28;20420;-76
2022/06/29 13:49:59;;;;;;;3.37;1.87;;;;;;;;;;5035951;28;20783;-75
2022/06/29 13:52:25;;;;;;;4.30;1.50;;;;;;;;;;5035673;28;20417;-76
2022/06/29 13:54:51;;;;;;;4.60;1.70;;;;;;;;;;5035351;28;20528;-74
2022/06/29 13:57:17;;;;;;;2.90;1.57;;;;;;;;;;5035745;28;20525;-75
2022/06/29 13:59:43;;;;;;;2.40;1.60;;;;;;;;;;5035406;28;20478;-74
2022/06/29 14:02:09;;;;;;;6.27;1.60;;;;;;;;;;5043618;28;20410;-75
2022/06/29 14:04:35;;;;;;;2.80;2.20;;;;;;;;;;5043358;28;20413;-75
2022/06/29 14:07:01;;;;;;;7.73;2.13;;;;;;;;;;5035740;28;20796;-75
2022/06/29 14:09:27;;;;;;;2.00;1.80;;;;;;;;;;5035597;28;20424;-75
2022/06/29 14:11:53;;;;;;;4.33;2.10;;;;;;;;;;5035374;28;20930;-75
2022/06/29 14:14:19;;;;;;;2.17;1.50;;;;;;;;;;5033955;28;20417;-75
2022/06/29 14:16:45;;;;;;;1.93;1.53;;;;;;;;;;5035417;28;20441;-75
2022/06/29 14:19:11;;;;;;;5.97;1.87;;;;;;;;;;5035087;28;21004;-75
2022/06/29 14:21:37;;;;;;;3.27;1.63;;;;;;;;;;5035287;28;20433;-75
2022/06/29 14:24:03;;;;;;;2.00;1.67;;;;;;;;;;5034816;28;20406;-75
2022/06/29 14:26:29;;;;;;;4.10;2.07;;;;;;;;;;5035266;28;20418;-76
2022/06/29 14:28:55;;;;;;;3.97;1.50;;;;;;;;;;5035299;28;20405;-76
2022/06/29 14:31:21;;;;;;;3.00;1.43;;;;;;;;;;5034424;28;20425;-77
2022/06/29 14:33:49;;;;;;;2.37;1.37;;;;;;;;;;5044044;28;20412;-77
2022/06/29 14:36:15;;;;;;;3.67;1.77;;;;;;;;;;5054961;28;20428;-76
2022/06/29 14:38:41;;;;;;;1.90;1.63;;;;;;;;;;5054918;28;21059;-76
2022/06/29 14:41:07;;;;;;;5.10;2.03;;;;;;;;;;5054747;28;20524;-78
2022/06/29 14:43:33;;;;;;;3.47;2.07;;;;;;;;;;5053149;28;20462;-77
2022/06/29 14:45:59;;;;;;;1.40;1.30;;;;;;;;;;5054606;28;20421;-77
2022/06/29 14:48:25;;;;;;;1.47;1.37;;;;;;;;;;5054638;28;20408;-76
2022/06/29 14:50:52;;;;;;;3.47;1.77;;;;;;;;;;5054706;28;20417;-77
2022/06/29 14:53:18;;;;;;;2.90;1.70;;;;;;;;;;5054392;28;20423;-77
2022/06/29 14:55:44;;;;;;;5.50;1.50;;;;;;;;;;5054563;28;20437;-78
2022/06/29 14:58:10;;;;;;;3.30;1.83;;;;;;;;;;5054411;28;20420;-77
2022/06/29 15:00:36;;;;;;;5.00;1.60;;;;;;;;;;5053076;28;20419;-76
2022/06/29 15:03:02;;;;;;;3.17;1.80;;;;;;;;;;5052903;28;20510;-77
2022/06/29 15:05:28;;;;;;;1.70;1.53;;;;;;;;;;5054255;28;21034;-77